sensor_id;sensor_type;location;lat;lon;timestamp;P1;P2;P0
55754;PMS5003;41674;52.290;-1.474;2022-11-23T00:02:28;12;12;
55754;PMS5003;41674;52.290;-1.474;2022-11-23T00:04:57;13;10;
55754;PMS5003;41674;52.290;-1.474;2022-11-23T00:07:27;13;13;
55754;PMS5003;41674;52.290;-1.474;2022-11-23T00:09:56;11;11;
55754;PMS5003;41674;52.290;-1.474;2022-11-23T00:12:26;14;10;
55754;PMS5003;41674;52.290;-1.474;2022-11-23T00:14:56;14;14;
55754;PMS5003;41674;52.290;-1.474;2022-11-23T00:17:25;14;12;
55754;PMS5003;41674;52.290;-1.474;2022-11-23T00:19:54;15;14;
55754;PMS5003;41674;52.290;-1.474;2022-11-23T00:22:24;18;15;
55754;PMS5003;41674;52.290;-1.474;2022-11-23T00:24:54;15;15;
55754;PMS5003;41674;52.290;-1.474;2022-11-23T00:27:23;24;19;
55754;PMS5003;41674;52.290;-1.474;2022-11-23T00:29:53;26;22;
55754;PMS5003;41674;52.290;-1.474;2022-11-23T00:32:22;24;22;
55754;PMS5003;41674;52.290;-1.474;2022-11-23T00:34:51;23;21;
55754;PMS5003;41674;52.290;-1.474;2022-11-23T00:37:20;25;22;
55754;PMS5003;41674;52.290;-1.474;2022-11-23T00:39:49;27;22;
55754;PMS5003;41674;52.290;-1.474;2022-11-23T00:42:19;30;26;
55754;PMS5003;41674;52.290;-1.474;2022-11-23T00:44:48;26;21;
55754;PMS5003;41674;52.290;-1.474;2022-11-23T00:47:17;25;21;
55754;PMS5003;41674;52.290;-1.474;2022-11-23T00:49:47;24;23;
55754;PMS5003;41674;52.290;-1.474;2022-11-23T00:52:17;21;18;
55754;PMS5003;41674;52.290;-1.474;2022-11-23T00:54:46;23;21;
55754;PMS5003;41674;52.290;-1.474;2022-11-23T00:57:15;21;20;
55754;PMS5003;41674;52.290;-1.474;2022-11-23T00:59:45;29;24;
55754;PMS5003;41674;52.290;-1.474;2022-11-23T01:02:15;24;19;
55754;PMS5003;41674;52.290;-1.474;2022-11-23T01:04:44;23;19;
55754;PMS5003;41674;52.290;-1.474;2022-11-23T01:07:13;21;20;
55754;PMS5003;41674;52.290;-1.474;2022-11-23T01:09:43;21;17;
55754;PMS5003;41674;52.290;-1.474;2022-11-23T01:12:12;24;22;
55754;PMS5003;41674;52.290;-1.474;2022-11-23T01:17:11;24;20;
55754;PMS5003;41674;52.290;-1.474;2022-11-23T01:19:40;24;22;
55754;PMS5003;41674;52.290;-1.474;2022-11-23T01:22:10;19;18;
55754;PMS5003;41674;52.290;-1.474;2022-11-23T01:24:39;24;20;
55754;PMS5003;41674;52.290;-1.474;2022-11-23T01:27:08;27;23;
55754;PMS5003;41674;52.290;-1.474;2022-11-23T01:29:37;25;22;
55754;PMS5003;41674;52.290;-1.474;2022-11-23T01:32:07;19;19;
55754;PMS5003;41674;52.290;-1.474;2022-11-23T01:34:36;30;25;
55754;PMS5003;41674;52.290;-1.474;2022-11-23T01:37:05;27;24;
55754;PMS5003;41674;52.290;-1.474;2022-11-23T01:39:35;22;21;
55754;PMS5003;41674;52.290;-1.474;2022-11-23T01:42:04;20;19;
55754;PMS5003;41674;52.290;-1.474;2022-11-23T01:44:35;24;20;
55754;PMS5003;41674;52.290;-1.474;2022-11-23T01:47:03;25;21;
55754;PMS5003;41674;52.290;-1.474;2022-11-23T01:49:34;23;22;
55754;PMS5003;41674;52.290;-1.474;2022-11-23T01:52:02;26;22;
55754;PMS5003;41674;52.290;-1.474;2022-11-23T01:54:33;22;19;
55754;PMS5003;41674;52.290;-1.474;2022-11-23T01:57:02;22;17;
55754;PMS5003;41674;52.290;-1.474;2022-11-23T01:59:30;18;16;
55754;PMS5003;41674;52.290;-1.474;2022-11-23T02:02:00;19;17;
55754;PMS5003;41674;52.290;-1.474;2022-11-23T02:04:31;19;17;
55754;PMS5003;41674;52.290;-1.474;2022-11-23T02:07:00;14;14;
55754;PMS5003;41674;52.290;-1.474;2022-11-23T02:09:30;22;20;
55754;PMS5003;41674;52.290;-1.474;2022-11-23T02:11:59;22;18;
55754;PMS5003;41674;52.290;-1.474;2022-11-23T02:14:28;15;13;
55754;PMS5003;41674;52.290;-1.474;2022-11-23T02:16:58;18;15;
55754;PMS5003;41674;52.290;-1.474;2022-11-23T02:19:29;22;15;
55754;PMS5003;41674;52.290;-1.474;2022-11-23T02:21:57;20;15;
55754;PMS5003;41674;52.290;-1.474;2022-11-23T02:24:27;15;13;
55754;PMS5003;41674;52.290;-1.474;2022-11-23T02:26:55;16;14;
55754;PMS5003;41674;52.290;-1.474;2022-11-23T02:29:25;18;14;
55754;PMS5003;41674;52.290;-1.474;2022-11-23T02:31:54;15;15;
55754;PMS5003;41674;52.290;-1.474;2022-11-23T02:34:24;15;12;
55754;PMS5003;41674;52.290;-1.474;2022-11-23T02:36:54;16;15;
55754;PMS5003;41674;52.290;-1.474;2022-11-23T02:39:25;14;14;
55754;PMS5003;41674;52.290;-1.474;2022-11-23T02:41:52;18;17;
55754;PMS5003;41674;52.290;-1.474;2022-11-23T02:44:38;14;12;
55754;PMS5003;41674;52.290;-1.474;2022-11-23T02:46:51;15;14;
55754;PMS5003;41674;52.290;-1.474;2022-11-23T02:49:21;12;11;
55754;PMS5003;41674;52.290;-1.474;2022-11-23T02:51:50;13;12;
55754;PMS5003;41674;52.290;-1.474;2022-11-23T02:54:19;11;10;
55754;PMS5003;41674;52.290;-1.474;2022-11-23T02:56:49;12;12;
55754;PMS5003;41674;52.290;-1.474;2022-11-23T02:59:18;8;8;
55754;PMS5003;41674;52.290;-1.474;2022-11-23T03:01:47;10;9;
55754;PMS5003;41674;52.290;-1.474;2022-11-23T03:04:17;12;12;
55754;PMS5003;41674;52.290;-1.474;2022-11-23T03:06:47;10;9;
55754;PMS5003;41674;52.290;-1.474;2022-11-23T03:09:17;10;9;
55754;PMS5003;41674;52.290;-1.474;2022-11-23T03:14:16;9;8;
55754;PMS5003;41674;52.290;-1.474;2022-11-23T03:16:45;9;7;
55754;PMS5003;41674;52.290;-1.474;2022-11-23T03:19:15;11;8;
55754;PMS5003;41674;52.290;-1.474;2022-11-23T03:21:44;7;6;
55754;PMS5003;41674;52.290;-1.474;2022-11-23T03:24:14;8;7;
55754;PMS5003;41674;52.290;-1.474;2022-11-23T03:26:44;8;7;
55754;PMS5003;41674;52.290;-1.474;2022-11-23T03:29:13;7;7;
55754;PMS5003;41674;52.290;-1.474;2022-11-23T03:31:43;8;6;
55754;PMS5003;41674;52.290;-1.474;2022-11-23T03:34:13;8;8;
55754;PMS5003;41674;52.290;-1.474;2022-11-23T03:36:42;9;8;
55754;PMS5003;41674;52.290;-1.474;2022-11-23T03:39:12;19;14;
55754;PMS5003;41674;52.290;-1.474;2022-11-23T03:41:42;15;11;
55754;PMS5003;41674;52.290;-1.474;2022-11-23T03:44:11;11;11;
55754;PMS5003;41674;52.290;-1.474;2022-11-23T03:46:41;16;13;
55754;PMS5003;41674;52.290;-1.474;2022-11-23T03:49:10;14;13;
55754;PMS5003;41674;52.290;-1.474;2022-11-23T03:51:40;12;11;
55754;PMS5003;41674;52.290;-1.474;2022-11-23T03:54:09;11;8;
55754;PMS5003;41674;52.290;-1.474;2022-11-23T03:56:39;9;8;
55754;PMS5003;41674;52.290;-1.474;2022-11-23T03:59:08;10;10;
55754;PMS5003;41674;52.290;-1.474;2022-11-23T04:01:38;9;9;
55754;PMS5003;41674;52.290;-1.474;2022-11-23T04:04:07;12;12;
55754;PMS5003;41674;52.290;-1.474;2022-11-23T04:06:37;9;8;
55754;PMS5003;41674;52.290;-1.474;2022-11-23T04:09:06;7;7;
55754;PMS5003;41674;52.290;-1.474;2022-11-23T04:11:36;9;7;
55754;PMS5003;41674;52.290;-1.474;2022-11-23T04:14:06;8;8;
55754;PMS5003;41674;52.290;-1.474;2022-11-23T04:16:35;9;9;
55754;PMS5003;41674;52.290;-1.474;2022-11-23T04:19:05;10;8;
55754;PMS5003;41674;52.290;-1.474;2022-11-23T04:21:35;7;6;
55754;PMS5003;41674;52.290;-1.474;2022-11-23T04:24:05;7;7;
55754;PMS5003;41674;52.290;-1.474;2022-11-23T04:26:34;10;9;
55754;PMS5003;41674;52.290;-1.474;2022-11-23T04:29:04;8;7;
55754;PMS5003;41674;52.290;-1.474;2022-11-23T04:31:34;6;6;
55754;PMS5003;41674;52.290;-1.474;2022-11-23T04:34:03;7;7;
55754;PMS5003;41674;52.290;-1.474;2022-11-23T04:36:33;9;7;
55754;PMS5003;41674;52.290;-1.474;2022-11-23T04:39:03;9;7;
55754;PMS5003;41674;52.290;-1.474;2022-11-23T04:41:32;8;8;
55754;PMS5003;41674;52.290;-1.474;2022-11-23T04:44:02;9;8;
55754;PMS5003;41674;52.290;-1.474;2022-11-23T04:46:31;5;5;
55754;PMS5003;41674;52.290;-1.474;2022-11-23T04:49:01;7;7;
55754;PMS5003;41674;52.290;-1.474;2022-11-23T04:51:30;8;7;
55754;PMS5003;41674;52.290;-1.474;2022-11-23T04:54:00;8;7;
55754;PMS5003;41674;52.290;-1.474;2022-11-23T04:56:29;8;8;
55754;PMS5003;41674;52.290;-1.474;2022-11-23T04:58:59;6;5;
55754;PMS5003;41674;52.290;-1.474;2022-11-23T05:01:29;5;4;
55754;PMS5003;41674;52.290;-1.474;2022-11-23T05:03:58;8;5;
55754;PMS5003;41674;52.290;-1.474;2022-11-23T05:06:28;8;5;
55754;PMS5003;41674;52.290;-1.474;2022-11-23T05:08:58;7;6;
55754;PMS5003;41674;52.290;-1.474;2022-11-23T05:11:27;5;5;
55754;PMS5003;41674;52.290;-1.474;2022-11-23T05:13:57;5;4;
55754;PMS5003;41674;52.290;-1.474;2022-11-23T05:16:27;6;5;
55754;PMS5003;41674;52.290;-1.474;2022-11-23T05:18:57;3;3;
55754;PMS5003;41674;52.290;-1.474;2022-11-23T05:21:26;5;3;
55754;PMS5003;41674;52.290;-1.474;2022-11-23T05:23:56;4;4;
55754;PMS5003;41674;52.290;-1.474;2022-11-23T05:26:26;5;5;
55754;PMS5003;41674;52.290;-1.474;2022-11-23T05:28:55;4;4;
55754;PMS5003;41674;52.290;-1.474;2022-11-23T05:31:25;4;3;
55754;PMS5003;41674;52.290;-1.474;2022-11-23T05:33:54;8;6;
55754;PMS5003;41674;52.290;-1.474;2022-11-23T05:36:24;5;5;
55754;PMS5003;41674;52.290;-1.474;2022-11-23T05:38:54;5;5;
55754;PMS5003;41674;52.290;-1.474;2022-11-23T05:41:23;5;3;
55754;PMS5003;41674;52.290;-1.474;2022-11-23T05:43:53;4;3;
55754;PMS5003;41674;52.290;-1.474;2022-11-23T05:46:23;2;2;
55754;PMS5003;41674;52.290;-1.474;2022-11-23T05:48:52;6;5;
55754;PMS5003;41674;52.290;-1.474;2022-11-23T05:51:22;4;4;
55754;PMS5003;41674;52.290;-1.474;2022-11-23T05:53:51;5;3;
55754;PMS5003;41674;52.290;-1.474;2022-11-23T05:56:21;5;4;
55754;PMS5003;41674;52.290;-1.474;2022-11-23T05:58:53;3;2;
55754;PMS5003;41674;52.290;-1.474;2022-11-23T06:01:20;4;4;
55754;PMS5003;41674;52.290;-1.474;2022-11-23T06:03:50;5;4;
55754;PMS5003;41674;52.290;-1.474;2022-11-23T06:06:20;2;2;
55754;PMS5003;41674;52.290;-1.474;2022-11-23T06:08:49;5;2;
55754;PMS5003;41674;52.290;-1.474;2022-11-23T06:11:19;3;3;
55754;PMS5003;41674;52.290;-1.474;2022-11-23T06:13:49;4;3;
55754;PMS5003;41674;52.290;-1.474;2022-11-23T06:16:18;5;3;
55754;PMS5003;41674;52.290;-1.474;2022-11-23T06:18:48;3;1;
55754;PMS5003;41674;52.290;-1.474;2022-11-23T06:21:23;3;1;
55754;PMS5003;41674;52.290;-1.474;2022-11-23T06:23:47;5;3;
55754;PMS5003;41674;52.290;-1.474;2022-11-23T06:26:17;4;4;
55754;PMS5003;41674;52.290;-1.474;2022-11-23T06:28:47;3;3;
55754;PMS5003;41674;52.290;-1.474;2022-11-23T06:31:16;4;2;
55754;PMS5003;41674;52.290;-1.474;2022-11-23T06:33:46;3;3;
55754;PMS5003;41674;52.290;-1.474;2022-11-23T06:36:16;5;3;
55754;PMS5003;41674;52.290;-1.474;2022-11-23T06:38:45;3;2;
55754;PMS5003;41674;52.290;-1.474;2022-11-23T06:41:15;2;2;
55754;PMS5003;41674;52.290;-1.474;2022-11-23T06:43:45;4;3;
55754;PMS5003;41674;52.290;-1.474;2022-11-23T06:46:14;4;4;
55754;PMS5003;41674;52.290;-1.474;2022-11-23T06:48:44;2;2;
55754;PMS5003;41674;52.290;-1.474;2022-11-23T06:51:14;4;3;
55754;PMS5003;41674;52.290;-1.474;2022-11-23T06:53:43;3;3;
55754;PMS5003;41674;52.290;-1.474;2022-11-23T06:56:13;4;4;
55754;PMS5003;41674;52.290;-1.474;2022-11-23T06:58:42;4;3;
55754;PMS5003;41674;52.290;-1.474;2022-11-23T07:01:12;7;4;
55754;PMS5003;41674;52.290;-1.474;2022-11-23T07:03:42;3;3;
55754;PMS5003;41674;52.290;-1.474;2022-11-23T07:06:11;5;3;
55754;PMS5003;41674;52.290;-1.474;2022-11-23T07:08:41;5;5;
55754;PMS5003;41674;52.290;-1.474;2022-11-23T07:11:11;3;3;
55754;PMS5003;41674;52.290;-1.474;2022-11-23T07:13:41;4;3;
55754;PMS5003;41674;52.290;-1.474;2022-11-23T07:16:10;5;3;
55754;PMS5003;41674;52.290;-1.474;2022-11-23T07:18:40;5;4;
55754;PMS5003;41674;52.290;-1.474;2022-11-23T07:21:09;5;5;
55754;PMS5003;41674;52.290;-1.474;2022-11-23T07:23:39;3;3;
55754;PMS5003;41674;52.290;-1.474;2022-11-23T07:26:09;3;3;
55754;PMS5003;41674;52.290;-1.474;2022-11-23T07:28:38;5;3;
55754;PMS5003;41674;52.290;-1.474;2022-11-23T07:31:08;3;3;
55754;PMS5003;41674;52.290;-1.474;2022-11-23T07:33:38;8;5;
55754;PMS5003;41674;52.290;-1.474;2022-11-23T07:36:08;3;1;
55754;PMS5003;41674;52.290;-1.474;2022-11-23T07:38:37;7;4;
55754;PMS5003;41674;52.290;-1.474;2022-11-23T07:41:07;4;3;
55754;PMS5003;41674;52.290;-1.474;2022-11-23T07:43:36;3;3;
55754;PMS5003;41674;52.290;-1.474;2022-11-23T07:46:06;5;5;
55754;PMS5003;41674;52.290;-1.474;2022-11-23T07:48:36;4;3;
55754;PMS5003;41674;52.290;-1.474;2022-11-23T07:51:05;2;2;
55754;PMS5003;41674;52.290;-1.474;2022-11-23T07:53:35;4;3;
55754;PMS5003;41674;52.290;-1.474;2022-11-23T07:56:05;3;3;
55754;PMS5003;41674;52.290;-1.474;2022-11-23T07:58:34;5;3;
55754;PMS5003;41674;52.290;-1.474;2022-11-23T08:01:04;4;4;
55754;PMS5003;41674;52.290;-1.474;2022-11-23T08:03:34;3;3;
55754;PMS5003;41674;52.290;-1.474;2022-11-23T08:06:03;4;3;
55754;PMS5003;41674;52.290;-1.474;2022-11-23T08:08:33;3;3;
55754;PMS5003;41674;52.290;-1.474;2022-11-23T08:13:32;4;2;
55754;PMS5003;41674;52.290;-1.474;2022-11-23T08:16:02;2;2;
55754;PMS5003;41674;52.290;-1.474;2022-11-23T08:18:31;1;1;
55754;PMS5003;41674;52.290;-1.474;2022-11-23T08:21:01;2;2;
55754;PMS5003;41674;52.290;-1.474;2022-11-23T08:23:30;1;1;
55754;PMS5003;41674;52.290;-1.474;2022-11-23T08:26:01;1;1;
55754;PMS5003;41674;52.290;-1.474;2022-11-23T08:28:30;2;2;
55754;PMS5003;41674;52.290;-1.474;2022-11-23T08:31:04;2;2;
55754;PMS5003;41674;52.290;-1.474;2022-11-23T08:33:29;2;1;
55754;PMS5003;41674;52.290;-1.474;2022-11-23T08:36:02;0;0;
55754;PMS5003;41674;52.290;-1.474;2022-11-23T08:38:28;2;2;
55754;PMS5003;41674;52.290;-1.474;2022-11-23T08:40:58;2;2;
55754;PMS5003;41674;52.290;-1.474;2022-11-23T08:43:28;2;2;
55754;PMS5003;41674;52.290;-1.474;2022-11-23T08:45:57;1;1;
55754;PMS5003;41674;52.290;-1.474;2022-11-23T08:48:27;0;0;
55754;PMS5003;41674;52.290;-1.474;2022-11-23T08:50:57;1;1;
55754;PMS5003;41674;52.290;-1.474;2022-11-23T08:53:26;1;1;
55754;PMS5003;41674;52.290;-1.474;2022-11-23T08:55:58;1;1;
55754;PMS5003;41674;52.290;-1.474;2022-11-23T08:58:25;0;0;
55754;PMS5003;41674;52.290;-1.474;2022-11-23T09:00:55;0;0;
55754;PMS5003;41674;52.290;-1.474;2022-11-23T09:03:24;2;0;
55754;PMS5003;41674;52.290;-1.474;2022-11-23T09:05:58;1;0;
55754;PMS5003;41674;52.290;-1.474;2022-11-23T09:08:24;0;0;
55754;PMS5003;41674;52.290;-1.474;2022-11-23T09:10:57;0;0;
55754;PMS5003;41674;52.290;-1.474;2022-11-23T09:13:24;0;0;
55754;PMS5003;41674;52.290;-1.474;2022-11-23T09:15:55;1;0;
55754;PMS5003;41674;52.290;-1.474;2022-11-23T09:18:22;0;0;
55754;PMS5003;41674;52.290;-1.474;2022-11-23T09:20:52;0;0;
55754;PMS5003;41674;52.290;-1.474;2022-11-23T09:23:21;0;0;
55754;PMS5003;41674;52.290;-1.474;2022-11-23T09:25:51;0;0;
55754;PMS5003;41674;52.290;-1.474;2022-11-23T09:28:20;0;0;
55754;PMS5003;41674;52.290;-1.474;2022-11-23T09:30:50;0;0;
55754;PMS5003;41674;52.290;-1.474;2022-11-23T09:33:20;1;1;
55754;PMS5003;41674;52.290;-1.474;2022-11-23T09:38:19;0;0;
55754;PMS5003;41674;52.290;-1.474;2022-11-23T09:40:48;1;0;
55754;PMS5003;41674;52.290;-1.474;2022-11-23T09:43:26;3;0;
55754;PMS5003;41674;52.290;-1.474;2022-11-23T09:45:48;0;0;
55754;PMS5003;41674;52.290;-1.474;2022-11-23T09:48:23;1;1;
55754;PMS5003;41674;52.290;-1.474;2022-11-23T09:50:47;1;1;
55754;PMS5003;41674;52.290;-1.474;2022-11-23T09:53:18;1;1;
55754;PMS5003;41674;52.290;-1.474;2022-11-23T09:55:47;3;1;
55754;PMS5003;41674;52.290;-1.474;2022-11-23T09:58:17;2;1;
55754;PMS5003;41674;52.290;-1.474;2022-11-23T10:00:47;1;1;
55754;PMS5003;41674;52.290;-1.474;2022-11-23T10:03:15;1;0;
55754;PMS5003;41674;52.290;-1.474;2022-11-23T10:05:55;0;0;
55754;PMS5003;41674;52.290;-1.474;2022-11-23T10:08:18;1;0;
55754;PMS5003;41674;52.290;-1.474;2022-11-23T10:10:44;0;0;
55754;PMS5003;41674;52.290;-1.474;2022-11-23T10:13:18;0;0;
55754;PMS5003;41674;52.290;-1.474;2022-11-23T10:15:46;1;1;
55754;PMS5003;41674;52.290;-1.474;2022-11-23T10:18:17;0;0;
55754;PMS5003;41674;52.290;-1.474;2022-11-23T10:20:48;0;0;
55754;PMS5003;41674;52.290;-1.474;2022-11-23T10:23:12;0;0;
55754;PMS5003;41674;52.290;-1.474;2022-11-23T10:25:43;0;0;
55754;PMS5003;41674;52.290;-1.474;2022-11-23T10:28:12;1;0;
55754;PMS5003;41674;52.290;-1.474;2022-11-23T10:30:41;2;0;
55754;PMS5003;41674;52.290;-1.474;2022-11-23T10:33:15;1;1;
55754;PMS5003;41674;52.290;-1.474;2022-11-23T10:35:40;0;0;
55754;PMS5003;41674;52.290;-1.474;2022-11-23T10:38:10;1;1;
55754;PMS5003;41674;52.290;-1.474;2022-11-23T10:40:42;3;3;
55754;PMS5003;41674;52.290;-1.474;2022-11-23T10:43:12;1;1;
55754;PMS5003;41674;52.290;-1.474;2022-11-23T10:45:38;2;0;
55754;PMS5003;41674;52.290;-1.474;2022-11-23T10:48:08;1;1;
55754;PMS5003;41674;52.290;-1.474;2022-11-23T10:50:38;1;1;
55754;PMS5003;41674;52.290;-1.474;2022-11-23T10:53:18;2;1;
55754;PMS5003;41674;52.290;-1.474;2022-11-23T10:55:46;3;2;
55754;PMS5003;41674;52.290;-1.474;2022-11-23T10:58:07;1;1;
55754;PMS5003;41674;52.290;-1.474;2022-11-23T11:00:36;0;0;
55754;PMS5003;41674;52.290;-1.474;2022-11-23T11:05:36;1;1;
55754;PMS5003;41674;52.290;-1.474;2022-11-23T11:08:11;5;3;
55754;PMS5003;41674;52.290;-1.474;2022-11-23T11:10:36;3;3;
55754;PMS5003;41674;52.290;-1.474;2022-11-23T11:15:34;1;1;
55754;PMS5003;41674;52.290;-1.474;2022-11-23T11:18:06;3;1;
55754;PMS5003;41674;52.290;-1.474;2022-11-23T11:23:04;2;0;
55754;PMS5003;41674;52.290;-1.474;2022-11-23T11:25:33;0;0;
55754;PMS5003;41674;52.290;-1.474;2022-11-23T11:28:02;2;1;
55754;PMS5003;41674;52.290;-1.474;2022-11-23T11:30:35;1;1;
55754;PMS5003;41674;52.290;-1.474;2022-11-23T11:33:02;5;2;
55754;PMS5003;41674;52.290;-1.474;2022-11-23T11:35:31;3;1;
55754;PMS5003;41674;52.290;-1.474;2022-11-23T11:38:01;4;2;
55754;PMS5003;41674;52.290;-1.474;2022-11-23T11:40:32;3;3;
55754;PMS5003;41674;52.290;-1.474;2022-11-23T11:45:31;2;0;
55754;PMS5003;41674;52.290;-1.474;2022-11-23T11:47:59;3;3;
55754;PMS5003;41674;52.290;-1.474;2022-11-23T11:50:29;2;2;
55754;PMS5003;41674;52.290;-1.474;2022-11-23T11:52:59;3;2;
55754;PMS5003;41674;52.290;-1.474;2022-11-23T11:55:28;1;1;
55754;PMS5003;41674;52.290;-1.474;2022-11-23T11:58:00;1;1;
55754;PMS5003;41674;52.290;-1.474;2022-11-23T12:00:27;0;0;
55754;PMS5003;41674;52.290;-1.474;2022-11-23T12:03:00;1;1;
55754;PMS5003;41674;52.290;-1.474;2022-11-23T12:05:27;0;0;
55754;PMS5003;41674;52.290;-1.474;2022-11-23T12:07:59;2;1;
55754;PMS5003;41674;52.290;-1.474;2022-11-23T12:10:26;4;2;
55754;PMS5003;41674;52.290;-1.474;2022-11-23T12:12:55;5;4;
55754;PMS5003;41674;52.290;-1.474;2022-11-23T12:15:27;2;2;
55754;PMS5003;41674;52.290;-1.474;2022-11-23T12:18:01;3;1;
55754;PMS5003;41674;52.290;-1.474;2022-11-23T12:20:24;4;2;
55754;PMS5003;41674;52.290;-1.474;2022-11-23T12:22:57;6;2;
55754;PMS5003;41674;52.290;-1.474;2022-11-23T12:25:28;2;0;
55754;PMS5003;41674;52.290;-1.474;2022-11-23T12:30:22;2;2;
55754;PMS5003;41674;52.290;-1.474;2022-11-23T12:32:56;1;1;
55754;PMS5003;41674;52.290;-1.474;2022-11-23T12:35:25;4;2;
55754;PMS5003;41674;52.290;-1.474;2022-11-23T12:37:53;4;2;
55754;PMS5003;41674;52.290;-1.474;2022-11-23T12:40:23;5;1;
55754;PMS5003;41674;52.290;-1.474;2022-11-23T12:42:49;3;3;
55754;PMS5003;41674;52.290;-1.474;2022-11-23T12:47:51;10;4;
55754;PMS5003;41674;52.290;-1.474;2022-11-23T12:50:20;5;2;
55754;PMS5003;41674;52.290;-1.474;2022-11-23T12:55:18;3;1;
55754;PMS5003;41674;52.290;-1.474;2022-11-23T12:57:48;2;1;
55754;PMS5003;41674;52.290;-1.474;2022-11-23T13:00:17;4;2;
55754;PMS5003;41674;52.290;-1.474;2022-11-23T13:05:20;1;1;
55754;PMS5003;41674;52.290;-1.474;2022-11-23T13:07:55;4;3;
55754;PMS5003;41674;52.290;-1.474;2022-11-23T13:10:17;1;1;
55754;PMS5003;41674;52.290;-1.474;2022-11-23T13:12:49;0;0;
55754;PMS5003;41674;52.290;-1.474;2022-11-23T13:15:18;5;2;
55754;PMS5003;41674;52.290;-1.474;2022-11-23T13:17:45;0;0;
55754;PMS5003;41674;52.290;-1.474;2022-11-23T13:20:21;1;1;
55754;PMS5003;41674;52.290;-1.474;2022-11-23T13:22:48;1;1;
55754;PMS5003;41674;52.290;-1.474;2022-11-23T13:25:14;1;1;
55754;PMS5003;41674;52.290;-1.474;2022-11-23T13:27:43;3;1;
55754;PMS5003;41674;52.290;-1.474;2022-11-23T13:32:45;1;1;
55754;PMS5003;41674;52.290;-1.474;2022-11-23T13:40:19;0;0;
55754;PMS5003;41674;52.290;-1.474;2022-11-23T13:42:40;0;0;
55754;PMS5003;41674;52.290;-1.474;2022-11-23T13:47:39;1;1;
55754;PMS5003;41674;52.290;-1.474;2022-11-23T13:50:16;1;1;
55754;PMS5003;41674;52.290;-1.474;2022-11-23T13:52:42;0;0;
55754;PMS5003;41674;52.290;-1.474;2022-11-23T13:57:38;3;1;
55754;PMS5003;41674;52.290;-1.474;2022-11-23T14:02:37;1;1;
55754;PMS5003;41674;52.290;-1.474;2022-11-23T14:07:36;3;1;
55754;PMS5003;41674;52.290;-1.474;2022-11-23T14:12:36;2;2;
55754;PMS5003;41674;52.290;-1.474;2022-11-23T14:15:11;1;1;
55754;PMS5003;41674;52.290;-1.474;2022-11-23T14:17:41;1;1;
55754;PMS5003;41674;52.290;-1.474;2022-11-23T14:20:09;0;0;
55754;PMS5003;41674;52.290;-1.474;2022-11-23T14:22:38;1;1;
55754;PMS5003;41674;52.290;-1.474;2022-11-23T14:27:39;1;1;
55754;PMS5003;41674;52.290;-1.474;2022-11-23T14:30:04;2;1;
55754;PMS5003;41674;52.290;-1.474;2022-11-23T14:32:37;3;1;
55754;PMS5003;41674;52.290;-1.474;2022-11-23T14:37:35;2;0;
55754;PMS5003;41674;52.290;-1.474;2022-11-23T14:40:04;0;0;
55754;PMS5003;41674;52.290;-1.474;2022-11-23T14:42:39;3;2;
55754;PMS5003;41674;52.290;-1.474;2022-11-23T14:45:01;0;0;
55754;PMS5003;41674;52.290;-1.474;2022-11-23T14:47:30;2;1;
55754;PMS5003;41674;52.290;-1.474;2022-11-23T14:50:00;3;1;
55754;PMS5003;41674;52.290;-1.474;2022-11-23T14:52:31;1;1;
55754;PMS5003;41674;52.290;-1.474;2022-11-23T14:55:01;3;1;
55754;PMS5003;41674;52.290;-1.474;2022-11-23T14:57:29;3;2;
55754;PMS5003;41674;52.290;-1.474;2022-11-23T14:59:58;3;0;
55754;PMS5003;41674;52.290;-1.474;2022-11-23T15:02:30;4;2;
55754;PMS5003;41674;52.290;-1.474;2022-11-23T15:05:00;2;1;
55754;PMS5003;41674;52.290;-1.474;2022-11-23T15:07:29;3;2;
55754;PMS5003;41674;52.290;-1.474;2022-11-23T15:10:04;3;2;
55754;PMS5003;41674;52.290;-1.474;2022-11-23T15:12:27;4;3;
55754;PMS5003;41674;52.290;-1.474;2022-11-23T15:14:56;4;2;
55754;PMS5003;41674;52.290;-1.474;2022-11-23T15:17:25;3;3;
55754;PMS5003;41674;52.290;-1.474;2022-11-23T15:19:55;3;2;
55754;PMS5003;41674;52.290;-1.474;2022-11-23T15:22:25;3;2;
55754;PMS5003;41674;52.290;-1.474;2022-11-23T15:24:55;2;2;
55754;PMS5003;41674;52.290;-1.474;2022-11-23T15:27:25;5;2;
55754;PMS5003;41674;52.290;-1.474;2022-11-23T15:29:54;2;2;
55754;PMS5003;41674;52.290;-1.474;2022-11-23T15:32:24;5;4;
55754;PMS5003;41674;52.290;-1.474;2022-11-23T15:34:53;2;2;
55754;PMS5003;41674;52.290;-1.474;2022-11-23T15:37:22;2;2;
55754;PMS5003;41674;52.290;-1.474;2022-11-23T15:39:52;3;3;
55754;PMS5003;41674;52.290;-1.474;2022-11-23T15:42:22;7;4;
55754;PMS5003;41674;52.290;-1.474;2022-11-23T15:44:52;5;4;
55754;PMS5003;41674;52.290;-1.474;2022-11-23T15:47:21;6;3;
55754;PMS5003;41674;52.290;-1.474;2022-11-23T15:49:50;4;3;
55754;PMS5003;41674;52.290;-1.474;2022-11-23T15:52:20;4;2;
55754;PMS5003;41674;52.290;-1.474;2022-11-23T15:54:50;5;3;
55754;PMS5003;41674;52.290;-1.474;2022-11-23T15:57:20;4;4;
55754;PMS5003;41674;52.290;-1.474;2022-11-23T15:59:53;5;3;
55754;PMS5003;41674;52.290;-1.474;2022-11-23T16:02:20;1;1;
55754;PMS5003;41674;52.290;-1.474;2022-11-23T16:04:49;4;4;
55754;PMS5003;41674;52.290;-1.474;2022-11-23T16:07:19;2;2;
55754;PMS5003;41674;52.290;-1.474;2022-11-23T16:09:48;4;2;
55754;PMS5003;41674;52.290;-1.474;2022-11-23T16:12:19;0;0;
55754;PMS5003;41674;52.290;-1.474;2022-11-23T16:14:47;5;3;
55754;PMS5003;41674;52.290;-1.474;2022-11-23T16:17:22;3;2;
55754;PMS5003;41674;52.290;-1.474;2022-11-23T16:19:46;7;3;
55754;PMS5003;41674;52.290;-1.474;2022-11-23T16:22:17;5;2;
55754;PMS5003;41674;52.290;-1.474;2022-11-23T16:24:46;6;4;
55754;PMS5003;41674;52.290;-1.474;2022-11-23T16:27:15;1;1;
55754;PMS5003;41674;52.290;-1.474;2022-11-23T16:29:44;2;2;
55754;PMS5003;41674;52.290;-1.474;2022-11-23T16:34:43;3;2;
55754;PMS5003;41674;52.290;-1.474;2022-11-23T16:37:13;3;3;
55754;PMS5003;41674;52.290;-1.474;2022-11-23T16:39:43;2;2;
55754;PMS5003;41674;52.290;-1.474;2022-11-23T16:42:17;6;5;
55754;PMS5003;41674;52.290;-1.474;2022-11-23T16:44:47;4;3;
55754;PMS5003;41674;52.290;-1.474;2022-11-23T16:47:15;6;3;
55754;PMS5003;41674;52.290;-1.474;2022-11-23T16:49:41;7;3;
55754;PMS5003;41674;52.290;-1.474;2022-11-23T16:52:10;6;4;
55754;PMS5003;41674;52.290;-1.474;2022-11-23T16:54:40;4;4;
55754;PMS5003;41674;52.290;-1.474;2022-11-23T16:57:14;7;4;
55754;PMS5003;41674;52.290;-1.474;2022-11-23T16:59:39;8;5;
55754;PMS5003;41674;52.290;-1.474;2022-11-23T17:02:09;4;3;
55754;PMS5003;41674;52.290;-1.474;2022-11-23T17:04:38;7;5;
55754;PMS5003;41674;52.290;-1.474;2022-11-23T17:07:08;6;4;
55754;PMS5003;41674;52.290;-1.474;2022-11-23T17:09:38;6;6;
55754;PMS5003;41674;52.290;-1.474;2022-11-23T17:12:11;5;5;
55754;PMS5003;41674;52.290;-1.474;2022-11-23T17:14:37;5;4;
55754;PMS5003;41674;52.290;-1.474;2022-11-23T17:17:08;5;3;
55754;PMS5003;41674;52.290;-1.474;2022-11-23T17:19:36;4;4;
55754;PMS5003;41674;52.290;-1.474;2022-11-23T17:22:06;2;2;
55754;PMS5003;41674;52.290;-1.474;2022-11-23T17:24:35;3;3;
55754;PMS5003;41674;52.290;-1.474;2022-11-23T17:27:11;5;3;
55754;PMS5003;41674;52.290;-1.474;2022-11-23T17:29:35;7;3;
55754;PMS5003;41674;52.290;-1.474;2022-11-23T17:32:09;3;2;
55754;PMS5003;41674;52.290;-1.474;2022-11-23T17:34:33;3;2;
55754;PMS5003;41674;52.290;-1.474;2022-11-23T17:37:08;3;3;
55754;PMS5003;41674;52.290;-1.474;2022-11-23T17:39:33;3;2;